Time;durP1;ratioP1;P1;durP2;ratioP2;P2;SDS_P1;SDS_P2;PMS_P1;PMS_P2;Temp;Humidity;BMP_temperature;BMP_pressure;BME280_temperature;BME280_humidity;BME280_pressure;Samples;Min_cycle;Max_cycle;Signal;HPM_P1;HPM_P2
2022/09/18 00:02:25;;;;;;;17.25;6.80;;;10.50;99.90;;;;;;5015478;28;20542;-58
2022/09/18 00:04:52;;;;;;;14.93;7.15;;;10.50;99.90;;;;;;5016149;28;20026;-58
2022/09/18 00:07:18;;;;;;;16.88;8.73;;;10.30;99.90;;;;;;5015916;28;20103;-58
2022/09/18 00:09:45;;;;;;;16.55;8.50;;;10.40;99.90;;;;;;5015865;28;20025;-57
2022/09/18 00:12:11;;;;;;;21.13;8.90;;;10.30;99.90;;;;;;5015832;28;20026;-58
2022/09/18 00:14:37;;;;;;;15.45;7.50;;;10.30;99.90;;;;;;5015639;28;20075;-58
2022/09/18 00:17:02;;;;;;;15.85;7.63;;;10.40;99.90;;;;;;5015614;28;20022;-58
2022/09/18 00:19:28;;;;;;;11.05;5.63;;;10.40;99.90;;;;;;5015674;28;20030;-57
2022/09/18 00:21:54;;;;;;;11.30;5.95;;;10.40;99.90;;;;;;5015350;28;20026;-58
2022/09/18 00:24:22;;;;;;;12.10;5.40;;;10.50;99.90;;;;;;5015598;28;20514;-57
2022/09/18 00:26:48;;;;;;;11.55;5.55;;;10.40;99.90;;;;;;5015615;28;20465;-57
2022/09/18 00:29:15;;;;;;;10.50;5.38;;;10.30;99.90;;;;;;5015541;28;20068;-57
2022/09/18 00:31:41;;;;;;;11.00;5.40;;;10.40;99.90;;;;;;5015426;28;20045;-58
2022/09/18 00:34:13;;;;;;;10.35;5.10;;;10.50;99.90;;;;;;5015413;28;20436;-57
2022/09/18 00:36:40;;;;;;;11.15;5.57;;;10.70;99.90;;;;;;5015384;28;20053;-57
2022/09/18 00:39:07;;;;;;;11.98;4.63;;;10.50;99.90;;;;;;5015456;28;20061;-58
2022/09/18 00:41:36;;;;;;;10.07;5.25;;;10.40;99.90;;;;;;5015579;28;20030;-57
2022/09/18 00:44:39;;;;;;;11.25;4.63;;;10.40;99.90;;;;;;5014144;28;20030;-57
2022/09/18 00:47:08;;;;;;;8.93;3.72;;;10.40;99.90;;;;;;5015469;28;20022;-58
2022/09/18 00:49:41;;;;;;;4.85;3.72;;;10.50;99.90;;;;;;5030419;28;20034;-57
2022/09/18 00:52:09;;;;;;;7.03;4.35;;;10.50;99.90;;;;;;5014817;28;20045;-57
2022/09/18 00:54:39;;;;;;;9.25;3.83;;;10.50;99.90;;;;;;5013811;28;20049;-57
2022/09/18 00:57:10;;;;;;;5.83;3.53;;;10.40;99.90;;;;;;5030322;28;20091;-58
2022/09/18 00:59:39;;;;;;;7.38;3.00;;;10.40;99.90;;;;;;5014928;28;20114;-57
2022/09/18 01:02:05;;;;;;;5.43;3.35;;;10.50;99.90;;;;;;5015236;28;20022;-58
2022/09/18 01:04:31;;;;;;;7.00;3.90;;;10.40;99.90;;;;;;5014925;28;20361;-57
2022/09/18 01:07:17;;;;;;;10.35;4.13;;;10.30;99.90;;;;;;5014792;28;20037;-58
2022/09/18 01:10:14;;;;;;;8.55;3.70;;;10.40;99.90;;;;;;5030141;28;20038;-58
2022/09/18 01:12:55;;;;;;;8.13;4.63;;;10.50;99.90;;;;;;5014817;28;20427;-58
2022/09/18 01:15:27;;;;;;;9.82;3.72;;;10.50;99.90;;;;;;5029854;28;20388;-57
2022/09/18 01:18:31;;;;;;;9.57;3.85;;;10.60;99.90;;;;;;5030162;28;20029;-58
2022/09/18 01:21:23;;;;;;;9.35;4.30;;;10.60;99.90;;;;;;5014539;28;20483;-57
2022/09/18 01:24:00;;;;;;;8.15;4.30;;;10.60;99.90;;;;;;5013490;28;20038;-58
2022/09/18 01:26:53;;;;;;;12.73;5.30;;;10.50;99.90;;;;;;5014508;28;20091;-57
2022/09/18 01:29:41;;;;;;;8.43;5.00;;;10.50;99.90;;;;;;5014783;28;20030;-57
2022/09/18 01:32:28;;;;;;;13.07;6.05;;;10.60;99.90;;;;;;5029675;28;20061;-58
2022/09/18 01:35:13;;;;;;;8.85;5.25;;;10.70;99.90;;;;;;5014606;28;20084;-58
2022/09/18 01:38:04;;;;;;;11.75;5.15;;;10.60;99.90;;;;;;5029675;28;20451;-58
2022/09/18 01:40:41;;;;;;;12.77;5.50;;;10.40;99.90;;;;;;5029690;28;20038;-58
2022/09/18 01:43:13;;;;;;;7.93;4.15;;;10.50;99.90;;;;;;5029746;28;20028;-58
2022/09/18 01:45:46;;;;;;;11.40;4.25;;;10.50;99.90;;;;;;5029698;28;20034;-58
2022/09/18 01:48:39;;;;;;;11.23;4.50;;;10.50;99.90;;;;;;5014390;28;20076;-58
2022/09/18 01:51:15;;;;;;;16.25;4.05;;;10.30;99.90;;;;;;5029449;28;20038;-58
2022/09/18 01:53:53;;;;;;;10.38;4.18;;;10.20;99.90;;;;;;5013166;28;20076;-58
2022/09/18 01:56:25;;;;;;;11.68;4.35;;;10.00;99.90;;;;;;5014354;28;20495;-58
2022/09/18 01:58:56;;;;;;;10.25;5.50;;;9.90;99.90;;;;;;5013210;28;20112;-58
2022/09/18 02:01:32;;;;;;;8.95;5.30;;;9.80;99.90;;;;;;5029462;28;20026;-58
2022/09/18 02:04:05;;;;;;;10.93;5.20;;;9.80;99.90;;;;;;5031904;28;20097;-58
2022/09/18 02:06:42;;;;;;;9.23;5.35;;;9.80;99.90;;;;;;5018307;28;20263;-57
2022/09/18 02:09:10;;;;;;;10.13;5.22;;;9.70;99.90;;;;;;5033345;28;20030;-58
2022/09/18 02:11:42;;;;;;;8.93;5.25;;;9.80;99.90;;;;;;5018021;28;20033;-58
2022/09/18 02:14:15;;;;;;;10.70;5.80;;;9.80;99.90;;;;;;5033283;28;20444;-58
2022/09/18 02:17:33;;;;;;;12.98;5.30;;;9.70;99.90;;;;;;5033338;28;20101;-58
2022/09/18 02:20:05;;;;;;;13.10;5.25;;;9.60;99.90;;;;;;5032834;28;20487;-58
2022/09/18 02:22:33;;;;;;;14.85;5.78;;;9.70;99.90;;;;;;5017842;28;20029;-58
2022/09/18 02:25:04;;;;;;;13.02;6.40;;;9.70;99.90;;;;;;5017965;28;20058;-58
2022/09/18 02:27:32;;;;;;;10.60;6.30;;;9.60;99.90;;;;;;5016631;28;20447;-58
2022/09/18 02:30:02;;;;;;;13.65;6.57;;;9.50;99.90;;;;;;5016530;28;20499;-57
2022/09/18 02:32:28;;;;;;;15.07;6.63;;;9.50;99.90;;;;;;5032954;28;20037;-57
2022/09/18 02:34:54;;;;;;;16.02;7.85;;;9.40;99.90;;;;;;5032888;28;20067;-58
2022/09/18 02:37:45;;;;;;;16.55;6.82;;;9.50;99.90;;;;;;5032701;28;20388;-57
2022/09/18 02:40:49;;;;;;;16.10;6.60;;;9.40;99.90;;;;;;5032866;28;20475;-57
2022/09/18 02:43:39;;;;;;;14.00;6.82;;;9.40;99.90;;;;;;4967747;28;20034;-57
2022/09/18 02:46:11;;;;;;;14.18;7.22;;;9.30;99.90;;;;;;5009507;28;20452;-57
2022/09/18 02:48:53;;;;;;;17.52;7.75;;;9.40;99.90;;;;;;5032698;28;20029;-57
2022/09/18 02:51:42;;;;;;;17.73;8.38;;;9.50;99.90;;;;;;5032382;28;20077;-57
2022/09/18 02:54:21;;;;;;;18.48;8.65;;;9.50;99.90;;;;;;5032204;28;20069;-57
2022/09/18 02:57:02;;;;;;;20.73;8.50;;;9.40;99.90;;;;;;5017361;28;20018;-57
2022/09/18 02:59:35;;;;;;;18.55;8.77;;;9.40;99.90;;;;;;5032481;28;20384;-57
2022/09/18 03:02:03;;;;;;;17.20;9.68;;;9.40;99.90;;;;;;5032513;28;20053;-57
2022/09/18 03:04:32;;;;;;;17.65;9.35;;;9.40;99.90;;;;;;4999980;28;20041;-57
2022/09/18 03:07:03;;;;;;;17.45;7.93;;;9.40;99.90;;;;;;5032260;28;20400;-57
2022/09/18 03:09:33;;;;;;;17.17;8.95;;;9.40;99.90;;;;;;5032395;28;20057;-57
2022/09/18 03:12:01;;;;;;;18.85;8.75;;;9.50;99.90;;;;;;5015597;28;20044;-57
2022/09/18 03:14:32;;;;;;;17.15;8.88;;;9.50;99.90;;;;;;5015526;28;20033;-57
2022/09/18 03:16:58;;;;;;;19.10;8.25;;;9.50;99.90;;;;;;5032177;28;20030;-57
2022/09/18 03:19:24;;;;;;;18.85;8.43;;;9.40;99.90;;;;;;5016762;28;20033;-57
2022/09/18 03:21:51;;;;;;;18.50;8.90;;;9.40;99.90;;;;;;5015339;28;20065;-57
2022/09/18 03:24:18;;;;;;;21.20;9.88;;;9.40;99.90;;;;;;5015471;28;20026;-57
2022/09/18 03:26:46;;;;;;;20.85;9.27;;;9.30;99.90;;;;;;5031866;28;20065;-57
2022/09/18 03:29:13;;;;;;;21.02;9.38;;;9.30;99.90;;;;;;5016845;28;20026;-57
2022/09/18 03:31:41;;;;;;;19.20;9.02;;;9.20;99.90;;;;;;5031880;28;20038;-57
2022/09/18 03:34:07;;;;;;;17.75;9.13;;;9.40;99.90;;;;;;5015036;28;20034;-57
2022/09/18 03:36:33;;;;;;;20.88;8.98;;;9.40;99.90;;;;;;5015394;28;20492;-57
2022/09/18 03:38:59;;;;;;;21.35;8.93;;;9.40;99.90;;;;;;5031801;28;20113;-57
2022/09/18 03:41:25;;;;;;;19.88;9.43;;;9.40;99.90;;;;;;5031638;28;20026;-57
2022/09/18 03:43:51;;;;;;;20.95;9.27;;;9.40;99.90;;;;;;5031570;28;20029;-57
2022/09/18 03:46:22;;;;;;;16.55;8.15;;;9.20;99.90;;;;;;5031671;28;20026;-57
2022/09/18 03:48:49;;;;;;;20.15;9.30;;;9.30;99.90;;;;;;5031518;28;20240;-57
2022/09/18 03:51:17;;;;;;;18.80;10.00;;;9.30;99.90;;;;;;5014839;28;20455;-57
2022/09/18 03:53:44;;;;;;;18.00;9.13;;;9.40;99.90;;;;;;5016100;28;20030;-57
2022/09/18 03:56:29;;;;;;;18.65;9.65;;;9.30;99.90;;;;;;5016121;28;20049;-57
2022/09/18 03:59:23;;;;;;;22.83;8.88;;;9.10;99.90;;;;;;5014884;28;20030;-57
2022/09/18 04:01:49;;;;;;;23.52;8.93;;;9.00;99.90;;;;;;5016033;28;20069;-57
2022/09/18 04:04:28;;;;;;;18.40;8.70;;;9.00;99.90;;;;;;5016034;28;20038;-57
2022/09/18 04:07:20;;;;;;;20.88;9.48;;;8.90;99.90;;;;;;5007415;28;20045;-57
2022/09/18 04:10:04;;;;;;;24.02;9.73;;;8.70;99.90;;;;;;5015194;28;20435;-57
2022/09/18 04:12:30;;;;;;;16.98;9.23;;;8.70;99.90;;;;;;5031024;28;20385;-57
2022/09/18 04:15:08;;;;;;;19.90;9.38;;;8.70;99.90;;;;;;5030995;28;20480;-57
2022/09/18 04:17:35;;;;;;;21.73;9.13;;;8.70;99.90;;;;;;5030976;28;20052;-57
2022/09/18 04:20:02;;;;;;;19.30;9.57;;;8.70;99.90;;;;;;5030863;28;20030;-57
2022/09/18 04:22:28;;;;;;;25.17;10.52;;;8.60;99.90;;;;;;5015809;28;20030;-57
2022/09/18 04:24:54;;;;;;;15.82;9.05;;;8.60;99.90;;;;;;5015417;28;20041;-57
2022/09/18 04:27:20;;;;;;;18.17;9.25;;;8.60;99.90;;;;;;5030293;28;20030;-57
2022/09/18 04:29:48;;;;;;;20.80;10.07;;;8.60;99.90;;;;;;5030813;28;20030;-57
2022/09/18 04:32:16;;;;;;;26.08;10.25;;;8.60;99.90;;;;;;5014199;28;20072;-57
2022/09/18 04:34:42;;;;;;;23.38;9.80;;;8.60;99.90;;;;;;5015367;28;20089;-57
2022/09/18 04:37:09;;;;;;;23.75;10.82;;;8.50;99.90;;;;;;5030597;28;20034;-57
2022/09/18 04:39:36;;;;;;;29.55;10.45;;;8.40;99.90;;;;;;5030434;28;20026;-57
2022/09/18 04:42:03;;;;;;;21.65;10.23;;;8.60;99.90;;;;;;5030736;28;20121;-57
2022/09/18 04:44:29;;;;;;;21.70;9.82;;;8.50;99.90;;;;;;5014084;28;20034;-57
2022/09/18 04:46:56;;;;;;;22.15;11.10;;;8.60;99.90;;;;;;5030383;28;20128;-57
2022/09/18 04:49:23;;;;;;;22.58;11.88;;;8.50;99.90;;;;;;5030528;28;20038;-57
2022/09/18 04:51:49;;;;;;;24.60;11.85;;;8.60;99.90;;;;;;5030207;28;20050;-57
2022/09/18 04:54:15;;;;;;;22.63;11.20;;;8.60;99.90;;;;;;5015016;28;20332;-57
2022/09/18 04:56:41;;;;;;;26.98;13.40;;;8.60;99.90;;;;;;5030378;28;20080;-57
2022/09/18 04:59:08;;;;;;;34.53;16.30;;;8.60;99.90;;;;;;5030370;28;20036;-57
2022/09/18 05:01:37;;;;;;;48.90;24.88;;;8.80;99.90;;;;;;5030187;28;20026;-57
2022/09/18 05:04:09;;;;;;;69.03;33.00;;;8.80;99.90;;;;;;5030227;28;20461;-57
2022/09/18 05:07:03;;;;;;;65.10;33.05;;;9.00;99.90;;;;;;5006488;28;20388;-57
2022/09/18 05:09:30;;;;;;;65.93;31.55;;;9.10;99.90;;;;;;5030177;28;20040;-57
2022/09/18 05:11:57;;;;;;;69.15;31.70;;;9.30;99.90;;;;;;5030058;28;20037;-57
2022/09/18 05:14:23;;;;;;;63.45;28.92;;;9.50;99.90;;;;;;5013378;28;20037;-57
2022/09/18 05:16:52;;;;;;;58.42;28.48;;;9.50;99.90;;;;;;5029973;28;20083;-57
2022/09/18 05:19:38;;;;;;;58.75;27.00;;;9.60;99.90;;;;;;5014444;28;20468;-57
2022/09/18 05:22:10;;;;;;;52.95;25.58;;;9.70;99.90;;;;;;5029816;28;20495;-57
2022/09/18 05:24:41;;;;;;;51.42;24.70;;;9.70;99.90;;;;;;5013414;28;20034;-57
2022/09/18 05:27:07;;;;;;;48.92;21.50;;;9.80;99.90;;;;;;5013396;28;20038;-57
2022/09/18 05:29:34;;;;;;;41.75;20.77;;;9.90;99.90;;;;;;5013246;28;20083;-57
2022/09/18 05:32:08;;;;;;;40.03;19.67;;;9.90;99.90;;;;;;5013454;28;20080;-57
2022/09/18 05:34:35;;;;;;;40.50;19.85;;;10.00;99.90;;;;;;5013229;28;20100;-57
2022/09/18 05:37:01;;;;;;;38.65;18.92;;;9.90;99.90;;;;;;5013125;28;20022;-57
2022/09/18 05:39:27;;;;;;;34.83;18.15;;;10.10;99.90;;;;;;5033027;28;20399;-57
2022/09/18 05:41:56;;;;;;;36.47;18.80;;;10.20;99.90;;;;;;5033770;28;20029;-57
2022/09/18 05:44:22;;;;;;;39.80;20.55;;;10.20;99.90;;;;;;5033794;28;20029;-57
2022/09/18 05:46:50;;;;;;;46.17;21.35;;;10.20;99.90;;;;;;5033841;28;20502;-57
2022/09/18 05:49:16;;;;;;;41.80;19.63;;;10.20;99.90;;;;;;5033723;28;20050;-57
2022/09/18 05:51:43;;;;;;;49.75;22.92;;;10.30;99.90;;;;;;5033498;28;20049;-57
2022/09/18 05:54:11;;;;;;;48.30;22.27;;;10.40;99.90;;;;;;5033634;28;20034;-57
2022/09/18 05:56:40;;;;;;;51.88;23.92;;;10.50;99.90;;;;;;5016957;28;20034;-57
2022/09/18 05:59:06;;;;;;;38.17;20.67;;;10.70;99.90;;;;;;5033627;28;20538;-57
2022/09/18 06:01:32;;;;;;;50.90;23.83;;;10.80;99.90;;;;;;5033577;28;20385;-57
2022/09/18 06:04:17;;;;;;;47.05;21.63;;;10.90;99.90;;;;;;5018324;28;20022;-57
2022/09/18 06:06:49;;;;;;;53.20;24.58;;;11.00;99.90;;;;;;5017107;28;20033;-57
2022/09/18 06:09:15;;;;;;;52.90;25.67;;;11.00;99.90;;;;;;5033371;28;20034;-57
2022/09/18 06:11:41;;;;;;;51.30;27.83;;;10.60;99.90;;;;;;5016785;28;20388;-57
2022/09/18 06:14:07;;;;;;;51.25;25.33;;;10.90;99.90;;;;;;5033269;28;20087;-57
2022/09/18 06:16:33;;;;;;;50.55;25.15;;;11.20;99.90;;;;;;5018034;28;20018;-57
2022/09/18 06:19:03;;;;;;;47.47;24.67;;;11.30;99.90;;;;;;5033176;28;20365;-57
2022/09/18 06:21:29;;;;;;;45.63;22.98;;;11.60;99.90;;;;;;5033236;28;20025;-57
2022/09/18 06:23:56;;;;;;;42.00;22.40;;;11.60;99.90;;;;;;5016493;28;20396;-57
2022/09/18 06:26:48;;;;;;;50.33;24.33;;;11.40;99.90;;;;;;5016457;28;20040;-57
2022/09/18 06:29:14;;;;;;;49.60;25.40;;;11.70;99.90;;;;;;5017829;28;20484;-57
2022/09/18 06:31:48;;;;;;;53.65;25.60;;;11.90;99.90;;;;;;5032891;28;20460;-57
2022/09/18 06:34:20;;;;;;;41.13;22.77;;;12.10;99.90;;;;;;5016402;28;20052;-57
2022/09/18 06:36:46;;;;;;;40.70;22.90;;;12.00;99.90;;;;;;5016362;28;20037;-57
2022/09/18 06:39:22;;;;;;;43.35;23.02;;;11.50;99.90;;;;;;5016205;28;20462;-57
2022/09/18 06:41:53;;;;;;;45.60;22.45;;;11.50;99.90;;;;;;5032680;28;20060;-57
2022/09/18 06:44:25;;;;;;;42.17;22.00;;;12.00;99.90;;;;;;5016182;28;20029;-57
2022/09/18 06:47:02;;;;;;;43.30;22.52;;;12.20;99.90;;;;;;5032753;28;20038;-57
2022/09/18 06:49:37;;;;;;;40.45;22.33;;;12.80;99.90;;;;;;5032125;28;20112;-58
2022/09/18 06:52:03;;;;;;;41.65;21.70;;;13.10;99.90;;;;;;5032495;28;20077;-58
2022/09/18 06:54:31;;;;;;;39.38;21.73;;;12.90;99.90;;;;;;5032568;28;20030;-58
2022/09/18 06:56:57;;;;;;;39.42;20.92;;;13.40;99.90;;;;;;5017394;28;20033;-57
2022/09/18 06:59:23;;;;;;;35.65;19.42;;;14.20;99.90;;;;;;5016025;28;20045;-58
2022/09/18 07:01:50;;;;;;;37.10;20.40;;;14.20;99.90;;;;;;5032597;28;20041;-58
2022/09/18 07:04:38;;;;;;;32.72;17.25;;;14.60;99.90;;;;;;5032343;28;20502;-58
2022/09/18 07:07:08;;;;;;;37.67;19.55;;;15.20;99.90;;;;;;5015718;28;20164;-58
2022/09/18 07:09:34;;;;;;;35.38;18.08;;;14.70;99.90;;;;;;5017000;28;20040;-58
2022/09/18 07:12:12;;;;;;;31.58;16.77;;;15.30;99.90;;;;;;5032341;28;20046;-58
2022/09/18 07:14:46;;;;;;;30.15;17.90;;;15.50;99.90;;;;;;5032016;28;20026;-58
2022/09/18 07:17:13;;;;;;;29.88;16.88;;;16.10;99.90;;;;;;5032185;28;20026;-58
2022/09/18 07:19:40;;;;;;;29.90;15.48;;;15.80;99.90;;;;;;5032305;28;20026;-58
2022/09/18 07:22:08;;;;;;;23.90;12.25;;;15.80;99.90;;;;;;5016758;28;20452;-58
2022/09/18 07:24:39;;;;;;;25.10;12.18;;;16.10;99.90;;;;;;5015487;28;20241;-58
2022/09/18 07:27:06;;;;;;;16.13;8.95;;;16.50;99.90;;;;;;5032002;28;20086;-58
2022/09/18 07:29:33;;;;;;;18.77;11.10;;;17.50;94.80;;;;;;5031839;28;20121;-58
2022/09/18 07:31:59;;;;;;;16.88;9.13;;;17.50;93.60;;;;;;5015332;28;20066;-58
2022/09/18 07:34:26;;;;;;;16.13;8.68;;;17.90;94.10;;;;;;5031626;28;20440;-58
2022/09/18 07:36:53;;;;;;;17.30;8.82;;;17.90;92.60;;;;;;5031624;28;20029;-58
2022/09/18 07:39:43;;;;;;;15.13;7.35;;;18.20;94.70;;;;;;5012098;28;20436;-58
2022/09/18 07:42:27;;;;;;;12.10;7.38;;;18.50;90.60;;;;;;4997094;28;20041;-58
2022/09/18 07:44:54;;;;;;;12.38;7.47;;;17.90;89.50;;;;;;5011932;28;20046;-59
2022/09/18 07:47:20;;;;;;;15.65;7.55;;;18.50;92.40;;;;;;5011763;28;20058;-58
2022/09/18 07:49:47;;;;;;;19.02;8.25;;;19.00;85.50;;;;;;5011730;28;20026;-58
2022/09/18 07:52:13;;;;;;;15.20;7.65;;;18.50;81.10;;;;;;4995293;28;20069;-59
2022/09/18 07:54:44;;;;;;;14.20;7.20;;;19.10;80.90;;;;;;5011732;28;20041;-59
2022/09/18 07:57:30;;;;;;;15.48;7.93;;;19.50;79.30;;;;;;4996231;28;20157;-59
2022/09/18 08:00:10;;;;;;;12.43;6.95;;;19.60;79.70;;;;;;4994933;28;20031;-59
2022/09/18 08:02:45;;;;;;;14.85;7.43;;;20.00;72.30;;;;;;4996231;28;20026;-59
2022/09/18 08:05:22;;;;;;;12.25;6.70;;;20.40;70.00;;;;;;5011451;28;20026;-59
2022/09/18 08:08:08;;;;;;;11.77;6.70;;;20.80;71.30;;;;;;5011428;28;20380;-59
2022/09/18 08:10:55;;;;;;;11.13;6.18;;;20.90;65.40;;;;;;4996300;28;20049;-59
2022/09/18 08:13:39;;;;;;;13.15;5.55;;;21.10;66.60;;;;;;4996341;28;20125;-59
2022/09/18 08:16:30;;;;;;;9.52;5.82;;;21.20;62.00;;;;;;5011322;28;20496;-59
2022/09/18 08:19:15;;;;;;;11.05;4.93;;;21.20;64.60;;;;;;4996037;28;20123;-59
2022/09/18 08:21:57;;;;;;;10.18;5.03;;;20.90;61.20;;;;;;5028404;28;20030;-59
2022/09/18 08:24:23;;;;;;;8.95;4.47;;;20.80;60.10;;;;;;5030778;28;20087;-59
2022/09/18 08:26:49;;;;;;;8.23;4.38;;;21.20;59.50;;;;;;5030872;28;20041;-59
2022/09/18 08:29:17;;;;;;;8.10;4.18;;;21.30;58.30;;;;;;5015550;28;20030;-59
2022/09/18 08:31:48;;;;;;;6.47;3.42;;;21.60;58.20;;;;;;5014313;28;20026;-59
2022/09/18 08:34:15;;;;;;;7.55;4.30;;;21.90;57.90;;;;;;5030590;28;20040;-59
2022/09/18 08:36:41;;;;;;;6.25;4.05;;;22.10;57.40;;;;;;5030525;28;20396;-59
2022/09/18 08:39:19;;;;;;;7.72;4.63;;;22.30;58.50;;;;;;5027319;28;20499;-59
2022/09/18 08:42:36;;;;;;;7.40;4.72;;;22.30;58.10;;;;;;4999165;28;20042;-59
2022/09/18 08:45:24;;;;;;;7.70;3.70;;;22.80;54.80;;;;;;5027374;28;20065;-59
2022/09/18 08:47:59;;;;;;;9.15;4.40;;;22.70;53.80;;;;;;5007028;28;20532;-59
2022/09/18 08:50:35;;;;;;;5.88;2.55;;;22.60;59.10;;;;;;5027268;28;20041;-59
2022/09/18 08:53:21;;;;;;;6.65;2.60;;;23.20;54.90;;;;;;5010540;28;20057;-59
2022/09/18 08:56:15;;;;;;;5.90;2.30;;;23.20;50.70;;;;;;4995508;28;20100;-59
2022/09/18 08:58:53;;;;;;;3.50;2.40;;;22.80;52.50;;;;;;4995646;28;20033;-59
2022/09/18 09:01:23;;;;;;;2.53;1.90;;;23.20;52.60;;;;;;5010221;28;20034;-59
2022/09/18 09:04:12;;;;;;;3.63;1.70;;;23.30;52.20;;;;;;5027055;28;20496;-59
2022/09/18 09:06:44;;;;;;;3.15;1.40;;;23.00;47.80;;;;;;5010525;28;20030;-59
2022/09/18 09:09:27;;;;;;;1.95;1.63;;;22.90;47.70;;;;;;5010207;28;20388;-59
2022/09/18 09:12:03;;;;;;;2.33;1.55;;;23.30;50.70;;;;;;5010209;28;20142;-59
2022/09/18 09:15:04;;;;;;;2.88;1.20;;;23.90;49.00;;;;;;5010188;28;20026;-59
2022/09/18 09:17:50;;;;;;;2.78;1.48;;;23.60;44.30;;;;;;5010343;28;20037;-59
2022/09/18 09:20:30;;;;;;;4.97;1.52;;;23.30;46.20;;;;;;5029832;28;20049;-59
2022/09/18 09:23:04;;;;;;;3.38;1.35;;;23.40;47.40;;;;;;5029889;28;20026;-60
2022/09/18 09:26:00;;;;;;;5.13;1.90;;;23.60;50.20;;;;;;5029976;28;20506;-59
2022/09/18 09:28:58;;;;;;;4.57;1.25;;;23.90;45.40;;;;;;5016242;28;20034;-60
2022/09/18 09:32:18;;;;;;;3.78;0.80;;;24.50;46.40;;;;;;5014501;28;20046;-59
2022/09/18 09:35:07;;;;;;;3.63;1.00;;;24.10;39.10;;;;;;5029811;28;20041;-59
2022/09/18 09:37:43;;;;;;;2.38;1.17;;;23.80;42.30;;;;;;5014335;28;20026;-59
2022/09/18 09:40:22;;;;;;;2.67;1.08;;;24.40;43.40;;;;;;5029895;28;20091;-59
2022/09/18 09:43:23;;;;;;;1.45;0.80;;;24.60;44.80;;;;;;5029753;28;20510;-60
2022/09/18 09:45:53;;;;;;;2.22;1.15;;;24.80;43.20;;;;;;5014574;28;20037;-59
2022/09/18 09:48:40;;;;;;;3.03;1.10;;;25.30;40.30;;;;;;5013307;28;20381;-60
2022/09/18 09:51:15;;;;;;;4.22;1.10;;;24.80;40.40;;;;;;5029497;28;20072;-60
2022/09/18 09:53:42;;;;;;;0.80;0.70;;;24.50;47.40;;;;;;5013276;28;20030;-59
2022/09/18 09:56:15;;;;;;;2.88;1.10;;;24.30;37.10;;;;;;5029633;28;20092;-59
2022/09/18 09:58:41;;;;;;;3.25;0.88;;;23.80;41.40;;;;;;5014347;28;20046;-60
2022/09/18 10:01:20;;;;;;;2.15;1.00;;;24.00;40.20;;;;;;5029552;28;20030;-60
2022/09/18 10:04:32;;;;;;;3.13;1.08;;;24.40;43.40;;;;;;5013171;28;20041;-60
2022/09/18 10:07:12;;;;;;;2.55;1.08;;;25.20;42.70;;;;;;5011500;28;20038;-60
2022/09/18 10:10:10;;;;;;;4.15;1.20;;;25.20;42.40;;;;;;5029472;28;20030;-60
2022/09/18 10:12:38;;;;;;;3.40;1.17;;;25.10;41.00;;;;;;5014430;28;20052;-60
2022/09/18 10:15:18;;;;;;;3.05;0.80;;;24.90;41.20;;;;;;5029345;28;20037;-60
2022/09/18 10:17:48;;;;;;;1.60;0.98;;;25.10;38.60;;;;;;5029288;28;20088;-60
2022/09/18 10:20:27;;;;;;;3.65;0.80;;;25.60;37.60;;;;;;5029193;28;20034;-60
2022/09/18 10:23:00;;;;;;;2.60;0.80;;;25.90;40.20;;;;;;5029516;28;20046;-60
2022/09/18 10:25:34;;;;;;;0.82;0.63;;;25.20;30.20;;;;;;5016977;28;20058;-60
2022/09/18 10:28:00;;;;;;;2.20;0.70;;;24.10;30.20;;;;;;5016635;28;20037;-60
2022/09/18 10:30:26;;;;;;;3.55;1.55;;;24.30;33.20;;;;;;5033034;28;20468;-60
2022/09/18 10:32:53;;;;;;;3.33;1.00;;;24.30;30.20;;;;;;5032982;28;20072;-60
2022/09/18 10:35:30;;;;;;;2.10;0.90;;;24.90;32.10;;;;;;5032890;28;20121;-60
2022/09/18 10:37:58;;;;;;;1.15;0.70;;;25.00;32.70;;;;;;5032812;28;20030;-60
2022/09/18 10:40:38;;;;;;;2.35;0.90;;;25.20;31.60;;;;;;5032936;28;20056;-60
2022/09/18 10:43:17;;;;;;;2.42;1.00;;;25.40;34.00;;;;;;5000010;28;20422;-60
2022/09/18 10:45:54;;;;;;;1.77;0.82;;;25.40;33.00;;;;;;5016278;28;20046;-60
2022/09/18 10:48:32;;;;;;;3.72;1.20;;;25.30;32.80;;;;;;5032558;28;20069;-60
2022/09/18 10:51:00;;;;;;;2.30;1.52;;;25.20;30.60;;;;;;5032633;28;20499;-59
2022/09/18 10:53:34;;;;;;;3.58;1.52;;;25.40;30.90;;;;;;5032709;28;20030;-60
2022/09/18 10:56:20;;;;;;;3.58;1.42;;;26.10;35.80;;;;;;5016239;28;20041;-60
2022/09/18 10:58:49;;;;;;;1.73;0.98;;;26.50;33.10;;;;;;5032549;28;20066;-60
2022/09/18 11:01:16;;;;;;;2.90;1.08;;;26.00;28.40;;;;;;5032276;28;20087;-59
2022/09/18 11:03:48;;;;;;;;;;;25.60;29.60;;;;;;5016288;28;20029;-60
2022/09/18 11:06:29;;;;;;;2.42;1.25;;;25.70;29.90;;;;;;5015878;28;20435;-60
2022/09/18 11:09:01;;;;;;;2.75;1.30;;;25.90;30.10;;;;;;5032294;28;20395;-60
2022/09/18 11:11:33;;;;;;;4.82;1.40;;;26.00;29.50;;;;;;5032281;28;20045;-60
2022/09/18 11:14:40;;;;;;;1.52;0.80;;;26.10;30.80;;;;;;5032118;28;20080;-59
2022/09/18 11:17:29;;;;;;;1.90;1.20;;;25.50;29.80;;;;;;5006051;28;20042;-60
2022/09/18 11:19:58;;;;;;;1.05;0.68;;;25.70;28.50;;;;;;5031902;28;20128;-60
2022/09/18 11:22:47;;;;;;;1.98;1.00;;;24.90;30.00;;;;;;5016707;28;20026;-59
2022/09/18 11:25:26;;;;;;;3.25;1.13;;;24.90;29.70;;;;;;5031978;28;20037;-60
2022/09/18 11:28:27;;;;;;;3.45;1.48;;;25.00;33.30;;;;;;5032145;28;20038;-60
2022/09/18 11:31:13;;;;;;;2.25;1.08;;;24.70;30.70;;;;;;5015186;28;20041;-60
2022/09/18 11:33:56;;;;;;;1.33;0.80;;;25.00;30.90;;;;;;5015476;28;20030;-60
2022/09/18 11:36:31;;;;;;;1.38;0.60;;;24.70;30.10;;;;;;5015288;28;20379;-59
2022/09/18 11:39:00;;;;;;;1.98;0.70;;;24.50;29.30;;;;;;5031645;28;20025;-60
2022/09/18 11:41:34;;;;;;;;;;;24.30;31.30;;;;;;5032319;28;20038;-59
2022/09/18 11:44:00;;;;;;;;;;;24.30;32.00;;;;;;5015733;28;19910;-59
2022/09/18 11:46:52;;;;;;;1.65;0.80;;;24.70;34.30;;;;;;5014998;28;19913;-59
2022/09/18 11:49:24;;;;;;;0.73;0.70;;;25.30;29.50;;;;;;5031544;28;20044;-59
2022/09/18 11:52:02;;;;;;;2.88;1.08;;;25.40;28.00;;;;;;5031426;28;20300;-59
2022/09/18 11:54:56;;;;;;;2.08;1.00;;;25.80;29.40;;;;;;5014963;28;20026;-60
2022/09/18 11:57:28;;;;;;;2.65;1.20;;;26.10;29.40;;;;;;5031460;28;20030;-59
2022/09/18 11:59:57;;;;;;;0.77;0.60;;;25.50;28.50;;;;;;5016077;28;20528;-59
2022/09/18 12:02:29;;;;;;;1.05;0.70;;;25.60;28.70;;;;;;5014718;28;20022;-59
2022/09/18 12:05:17;;;;;;;3.53;1.42;;;25.10;28.20;;;;;;5031386;28;20033;-60
2022/09/18 12:07:55;;;;;;;3.58;2.20;;;25.50;30.30;;;;;;5031169;28;20037;-59
2022/09/18 12:10:49;;;;;;;3.70;2.00;;;25.00;29.40;;;;;;5014541;28;20030;-59
2022/09/18 12:13:28;;;;;;;3.65;2.40;;;24.50;28.80;;;;;;5031164;28;20026;-59
2022/09/18 12:16:03;;;;;;;2.60;1.52;;;23.90;30.50;;;;;;5014405;28;20041;-59
2022/09/18 12:18:34;;;;;;;7.35;1.80;;;24.40;31.80;;;;;;5014544;28;20029;-59
2022/09/18 12:21:11;;;;;;;4.97;2.25;;;24.70;33.00;;;;;;5030668;28;20472;-59
2022/09/18 12:23:39;;;;;;;7.00;3.20;;;25.10;33.00;;;;;;5031013;28;20041;-59
2022/09/18 12:26:23;;;;;;;6.78;3.08;;;25.20;31.20;;;;;;5030757;28;20056;-59
2022/09/18 12:29:21;;;;;;;5.30;2.33;;;25.40;30.00;;;;;;5030663;28;20029;-59
2022/09/18 12:31:53;;;;;;;1.63;1.10;;;25.60;32.20;;;;;;5015640;28;20022;-59
2022/09/18 12:34:27;;;;;;;2.00;1.00;;;25.20;29.00;;;;;;5015641;28;20022;-59
2022/09/18 12:37:01;;;;;;;2.63;0.93;;;24.80;28.40;;;;;;5015443;28;20022;-59
2022/09/18 12:39:51;;;;;;;0.70;0.60;;;24.10;27.00;;;;;;4996144;28;20424;-59
2022/09/18 12:42:59;;;;;;;1.60;0.95;;;23.70;27.80;;;;;;4995844;28;20057;-59
2022/09/18 12:45:46;;;;;;;0.73;0.47;;;24.10;29.10;;;;;;4995684;28;20124;-59
2022/09/18 12:48:17;;;;;;;1.88;1.10;;;24.30;28.00;;;;;;4995287;28;20081;-59
2022/09/18 12:51:04;;;;;;;1.10;0.73;;;24.40;30.00;;;;;;4995318;28;20096;-59
2022/09/18 12:53:56;;;;;;;1.45;0.80;;;24.50;28.80;;;;;;4995658;28;20073;-59
2022/09/18 12:56:33;;;;;;;2.90;0.80;;;24.70;28.70;;;;;;4995567;28;20045;-59
2022/09/18 12:59:06;;;;;;;2.70;1.25;;;24.50;28.10;;;;;;4995377;28;20105;-59
2022/09/18 13:02:14;;;;;;;3.63;0.40;;;24.60;28.20;;;;;;4995475;28;20033;-59
2022/09/18 13:05:06;;;;;;;2.22;0.70;;;24.10;25.90;;;;;;4989857;28;20173;-59
2022/09/18 13:07:42;;;;;;;0.93;0.70;;;23.60;26.00;;;;;;4977358;28;20504;-59
2022/09/18 13:10:28;;;;;;;0.80;0.55;;;23.50;27.80;;;;;;4995245;28;20093;-59
2022/09/18 13:13:32;;;;;;;2.38;0.63;;;23.60;27.50;;;;;;4995362;28;20034;-59
2022/09/18 13:16:16;;;;;;;0.88;0.40;;;23.50;28.50;;;;;;4995222;28;20495;-59
2022/09/18 13:19:08;;;;;;;0.93;0.65;;;23.60;28.40;;;;;;4995261;28;20019;-59
2022/09/18 13:21:40;;;;;;;1.48;0.85;;;24.20;29.00;;;;;;5008901;28;20065;-59
2022/09/18 13:24:12;;;;;;;4.32;0.77;;;24.40;28.80;;;;;;5014785;28;20084;-59
2022/09/18 13:26:39;;;;;;;1.42;0.55;;;24.10;28.10;;;;;;5015047;28;20139;-59